sensor_id;sensor_type;location;lat;lon;timestamp;P1;durP1;ratioP1;P2;durP2;ratioP2
72198;SDS011;60103;51.014;16.992;2023-07-20T00:00:58;7.60;;;2.20;;
72198;SDS011;60103;51.014;16.992;2023-07-20T00:03:31;6.80;;;2.20;;
72198;SDS011;60103;51.014;16.992;2023-07-20T00:06:00;7.40;;;2.00;;
72198;SDS011;60103;51.014;16.992;2023-07-20T00:08:28;8.40;;;2.30;;
72198;SDS011;60103;51.014;16.992;2023-07-20T00:10:57;7.10;;;2.30;;
72198;SDS011;60103;51.014;16.992;2023-07-20T00:13:27;10.00;;;2.30;;
72198;SDS011;60103;51.014;16.992;2023-07-20T00:15:56;7.60;;;2.50;;
72198;SDS011;60103;51.014;16.992;2023-07-20T00:18:25;8.30;;;2.10;;
72198;SDS011;60103;51.014;16.992;2023-07-20T00:20:53;7.40;;;2.00;;
72198;SDS011;60103;51.014;16.992;2023-07-20T00:23:22;8.80;;;2.60;;
72198;SDS011;60103;51.014;16.992;2023-07-20T00:25:51;7.50;;;2.50;;
72198;SDS011;60103;51.014;16.992;2023-07-20T00:28:20;7.70;;;2.00;;
72198;SDS011;60103;51.014;16.992;2023-07-20T00:30:49;9.60;;;2.40;;
72198;SDS011;60103;51.014;16.992;2023-07-20T00:33:18;7.70;;;2.20;;
72198;SDS011;60103;51.014;16.992;2023-07-20T00:35:47;6.90;;;2.00;;
72198;SDS011;60103;51.014;16.992;2023-07-20T00:38:16;10.00;;;2.50;;
72198;SDS011;60103;51.014;16.992;2023-07-20T00:40:45;10.70;;;2.30;;
72198;SDS011;60103;51.014;16.992;2023-07-20T00:43:14;6.10;;;1.90;;
72198;SDS011;60103;51.014;16.992;2023-07-20T00:45:43;6.80;;;1.80;;
72198;SDS011;60103;51.014;16.992;2023-07-20T00:48:12;8.60;;;1.80;;
72198;SDS011;60103;51.014;16.992;2023-07-20T00:50:43;8.30;;;2.20;;
72198;SDS011;60103;51.014;16.992;2023-07-20T00:53:12;9.00;;;2.10;;
72198;SDS011;60103;51.014;16.992;2023-07-20T00:55:41;8.50;;;2.30;;
72198;SDS011;60103;51.014;16.992;2023-07-20T00:58:10;6.10;;;2.00;;
72198;SDS011;60103;51.014;16.992;2023-07-20T01:00:38;8.70;;;2.80;;
72198;SDS011;60103;51.014;16.992;2023-07-20T01:03:07;7.60;;;2.30;;
72198;SDS011;60103;51.014;16.992;2023-07-20T01:05:41;10.70;;;2.40;;
72198;SDS011;60103;51.014;16.992;2023-07-20T01:08:17;8.10;;;2.30;;
72198;SDS011;60103;51.014;16.992;2023-07-20T01:10:57;10.90;;;2.00;;
72198;SDS011;60103;51.014;16.992;2023-07-20T01:13:29;9.50;;;2.10;;
72198;SDS011;60103;51.014;16.992;2023-07-20T01:16:01;16.60;;;2.70;;
72198;SDS011;60103;51.014;16.992;2023-07-20T01:18:30;8.90;;;2.60;;
72198;SDS011;60103;51.014;16.992;2023-07-20T01:21:01;8.50;;;2.30;;
72198;SDS011;60103;51.014;16.992;2023-07-20T01:32:19;9.10;;;2.60;;
72198;SDS011;60103;51.014;16.992;2023-07-20T01:34:49;9.30;;;2.10;;
72198;SDS011;60103;51.014;16.992;2023-07-20T01:37:21;7.80;;;1.90;;
72198;SDS011;60103;51.014;16.992;2023-07-20T01:39:53;9.40;;;2.20;;
72198;SDS011;60103;51.014;16.992;2023-07-20T01:42:25;6.20;;;1.90;;
72198;SDS011;60103;51.014;16.992;2023-07-20T01:44:55;9.50;;;2.50;;
72198;SDS011;60103;51.014;16.992;2023-07-20T01:47:24;10.80;;;2.50;;
72198;SDS011;60103;51.014;16.992;2023-07-20T01:49:53;11.30;;;2.50;;
72198;SDS011;60103;51.014;16.992;2023-07-20T01:52:22;8.50;;;2.40;;
72198;SDS011;60103;51.014;16.992;2023-07-20T01:54:51;7.90;;;2.20;;
72198;SDS011;60103;51.014;16.992;2023-07-20T01:57:21;10.10;;;2.40;;
72198;SDS011;60103;51.014;16.992;2023-07-20T01:59:50;11.90;;;2.60;;
72198;SDS011;60103;51.014;16.992;2023-07-20T02:02:18;10.60;;;2.40;;
72198;SDS011;60103;51.014;16.992;2023-07-20T02:04:49;9.00;;;2.50;;
72198;SDS011;60103;51.014;16.992;2023-07-20T02:07:18;13.20;;;2.40;;
72198;SDS011;60103;51.014;16.992;2023-07-20T02:09:47;10.10;;;2.40;;
72198;SDS011;60103;51.014;16.992;2023-07-20T02:12:16;9.20;;;2.30;;
72198;SDS011;60103;51.014;16.992;2023-07-20T02:14:44;11.80;;;2.60;;
72198;SDS011;60103;51.014;16.992;2023-07-20T02:17:13;10.80;;;2.70;;
72198;SDS011;60103;51.014;16.992;2023-07-20T02:19:42;9.80;;;2.50;;
72198;SDS011;60103;51.014;16.992;2023-07-20T02:22:11;9.30;;;2.30;;
72198;SDS011;60103;51.014;16.992;2023-07-20T02:24:40;8.90;;;2.20;;
72198;SDS011;60103;51.014;16.992;2023-07-20T02:27:08;8.90;;;2.30;;
72198;SDS011;60103;51.014;16.992;2023-07-20T02:29:37;9.20;;;2.40;;
72198;SDS011;60103;51.014;16.992;2023-07-20T02:32:06;10.30;;;2.30;;
72198;SDS011;60103;51.014;16.992;2023-07-20T02:34:35;9.10;;;2.30;;
72198;SDS011;60103;51.014;16.992;2023-07-20T02:37:04;9.30;;;2.40;;
72198;SDS011;60103;51.014;16.992;2023-07-20T02:39:36;8.10;;;2.30;;
72198;SDS011;60103;51.014;16.992;2023-07-20T02:42:05;7.30;;;2.40;;
72198;SDS011;60103;51.014;16.992;2023-07-20T02:44:34;9.50;;;2.20;;
72198;SDS011;60103;51.014;16.992;2023-07-20T02:47:03;11.00;;;2.30;;
72198;SDS011;60103;51.014;16.992;2023-07-20T02:49:32;11.20;;;2.40;;
72198;SDS011;60103;51.014;16.992;2023-07-20T02:52:01;10.20;;;2.20;;
72198;SDS011;60103;51.014;16.992;2023-07-20T02:54:31;9.60;;;2.40;;
72198;SDS011;60103;51.014;16.992;2023-07-20T02:56:59;6.70;;;1.80;;
72198;SDS011;60103;51.014;16.992;2023-07-20T02:59:29;7.70;;;2.20;;
72198;SDS011;60103;51.014;16.992;2023-07-20T03:01:58;8.50;;;2.20;;
72198;SDS011;60103;51.014;16.992;2023-07-20T03:04:27;7.80;;;2.10;;
72198;SDS011;60103;51.014;16.992;2023-07-20T03:06:55;8.80;;;2.20;;
72198;SDS011;60103;51.014;16.992;2023-07-20T03:09:24;6.80;;;2.00;;
72198;SDS011;60103;51.014;16.992;2023-07-20T03:11:53;9.20;;;2.10;;
72198;SDS011;60103;51.014;16.992;2023-07-20T03:14:22;7.10;;;1.80;;
72198;SDS011;60103;51.014;16.992;2023-07-20T03:16:52;8.10;;;2.00;;
72198;SDS011;60103;51.014;16.992;2023-07-20T03:19:21;9.10;;;1.70;;
72198;SDS011;60103;51.014;16.992;2023-07-20T03:21:50;7.50;;;2.10;;
72198;SDS011;60103;51.014;16.992;2023-07-20T03:24:19;7.20;;;2.20;;
72198;SDS011;60103;51.014;16.992;2023-07-20T03:26:49;9.60;;;2.40;;
72198;SDS011;60103;51.014;16.992;2023-07-20T03:29:18;7.90;;;2.00;;
72198;SDS011;60103;51.014;16.992;2023-07-20T03:31:47;7.30;;;2.00;;
72198;SDS011;60103;51.014;16.992;2023-07-20T03:34:18;7.60;;;2.00;;
72198;SDS011;60103;51.014;16.992;2023-07-20T03:36:46;6.60;;;1.80;;
72198;SDS011;60103;51.014;16.992;2023-07-20T03:39:15;8.00;;;2.10;;
72198;SDS011;60103;51.014;16.992;2023-07-20T03:41:44;7.50;;;2.10;;
72198;SDS011;60103;51.014;16.992;2023-07-20T03:44:13;8.00;;;1.80;;
72198;SDS011;60103;51.014;16.992;2023-07-20T03:46:41;8.20;;;2.00;;
72198;SDS011;60103;51.014;16.992;2023-07-20T03:49:10;7.30;;;1.70;;
72198;SDS011;60103;51.014;16.992;2023-07-20T03:51:39;6.60;;;2.30;;
72198;SDS011;60103;51.014;16.992;2023-07-20T03:54:08;7.80;;;2.10;;
72198;SDS011;60103;51.014;16.992;2023-07-20T03:56:37;6.80;;;2.20;;
72198;SDS011;60103;51.014;16.992;2023-07-20T03:59:06;7.50;;;2.20;;
72198;SDS011;60103;51.014;16.992;2023-07-20T04:01:35;6.70;;;2.00;;
72198;SDS011;60103;51.014;16.992;2023-07-20T04:04:06;8.10;;;1.90;;
72198;SDS011;60103;51.014;16.992;2023-07-20T04:06:37;9.90;;;1.90;;
72198;SDS011;60103;51.014;16.992;2023-07-20T04:09:05;7.70;;;2.40;;
72198;SDS011;60103;51.014;16.992;2023-07-20T04:11:34;7.40;;;2.30;;
72198;SDS011;60103;51.014;16.992;2023-07-20T04:14:03;7.10;;;2.10;;
72198;SDS011;60103;51.014;16.992;2023-07-20T04:16:32;11.70;;;2.90;;
72198;SDS011;60103;51.014;16.992;2023-07-20T04:19:01;7.70;;;2.20;;
72198;SDS011;60103;51.014;16.992;2023-07-20T04:21:31;8.90;;;2.90;;
72198;SDS011;60103;51.014;16.992;2023-07-20T04:23:59;9.50;;;2.50;;
72198;SDS011;60103;51.014;16.992;2023-07-20T04:26:28;8.30;;;2.80;;
72198;SDS011;60103;51.014;16.992;2023-07-20T04:28:58;8.50;;;3.30;;
72198;SDS011;60103;51.014;16.992;2023-07-20T04:31:34;9.30;;;2.90;;
72198;SDS011;60103;51.014;16.992;2023-07-20T04:34:04;8.30;;;3.40;;
72198;SDS011;60103;51.014;16.992;2023-07-20T04:36:35;9.70;;;3.30;;
72198;SDS011;60103;51.014;16.992;2023-07-20T04:39:04;8.30;;;3.40;;
72198;SDS011;60103;51.014;16.992;2023-07-20T04:41:49;8.80;;;3.10;;
72198;SDS011;60103;51.014;16.992;2023-07-20T04:44:18;9.70;;;3.60;;
72198;SDS011;60103;51.014;16.992;2023-07-20T04:46:47;10.60;;;3.50;;
72198;SDS011;60103;51.014;16.992;2023-07-20T04:49:16;9.70;;;3.30;;
72198;SDS011;60103;51.014;16.992;2023-07-20T04:51:45;10.50;;;3.80;;
72198;SDS011;60103;51.014;16.992;2023-07-20T04:54:14;9.70;;;4.20;;
72198;SDS011;60103;51.014;16.992;2023-07-20T04:56:45;11.20;;;3.70;;
72198;SDS011;60103;51.014;16.992;2023-07-20T04:59:18;10.60;;;4.00;;
72198;SDS011;60103;51.014;16.992;2023-07-20T05:01:47;11.60;;;3.80;;
72198;SDS011;60103;51.014;16.992;2023-07-20T05:04:19;11.60;;;4.00;;
72198;SDS011;60103;51.014;16.992;2023-07-20T05:06:50;10.20;;;3.90;;
72198;SDS011;60103;51.014;16.992;2023-07-20T05:09:19;9.40;;;3.60;;
72198;SDS011;60103;51.014;16.992;2023-07-20T05:11:48;10.00;;;4.00;;
72198;SDS011;60103;51.014;16.992;2023-07-20T05:14:17;10.50;;;3.60;;
72198;SDS011;60103;51.014;16.992;2023-07-20T05:16:47;13.10;;;3.90;;
72198;SDS011;60103;51.014;16.992;2023-07-20T05:19:16;12.00;;;4.60;;
72198;SDS011;60103;51.014;16.992;2023-07-20T05:21:45;12.10;;;4.50;;
72198;SDS011;60103;51.014;16.992;2023-07-20T05:24:15;8.70;;;4.10;;
72198;SDS011;60103;51.014;16.992;2023-07-20T05:26:43;12.50;;;4.40;;
72198;SDS011;60103;51.014;16.992;2023-07-20T05:29:12;12.60;;;5.00;;
72198;SDS011;60103;51.014;16.992;2023-07-20T05:31:41;10.50;;;4.30;;
72198;SDS011;60103;51.014;16.992;2023-07-20T05:34:10;10.80;;;4.60;;
72198;SDS011;60103;51.014;16.992;2023-07-20T05:36:39;12.50;;;4.60;;
72198;SDS011;60103;51.014;16.992;2023-07-20T05:39:10;14.70;;;5.30;;
72198;SDS011;60103;51.014;16.992;2023-07-20T05:41:39;14.70;;;5.70;;
72198;SDS011;60103;51.014;16.992;2023-07-20T05:44:08;15.40;;;5.70;;
72198;SDS011;60103;51.014;16.992;2023-07-20T05:46:37;12.50;;;4.60;;
72198;SDS011;60103;51.014;16.992;2023-07-20T05:49:22;12.70;;;5.10;;
72198;SDS011;60103;51.014;16.992;2023-07-20T05:51:51;14.00;;;5.60;;
72198;SDS011;60103;51.014;16.992;2023-07-20T05:54:20;12.10;;;4.60;;
72198;SDS011;60103;51.014;16.992;2023-07-20T05:56:48;12.90;;;5.00;;
72198;SDS011;60103;51.014;16.992;2023-07-20T05:59:17;14.20;;;5.70;;
72198;SDS011;60103;51.014;16.992;2023-07-20T06:01:47;12.30;;;4.80;;
72198;SDS011;60103;51.014;16.992;2023-07-20T06:04:17;16.40;;;5.70;;
72198;SDS011;60103;51.014;16.992;2023-07-20T06:06:46;11.90;;;5.40;;
72198;SDS011;60103;51.014;16.992;2023-07-20T06:09:15;11.60;;;4.90;;
72198;SDS011;60103;51.014;16.992;2023-07-20T06:11:44;13.50;;;5.70;;
72198;SDS011;60103;51.014;16.992;2023-07-20T06:14:13;14.40;;;5.90;;
72198;SDS011;60103;51.014;16.992;2023-07-20T06:16:42;11.90;;;5.30;;
72198;SDS011;60103;51.014;16.992;2023-07-20T06:19:11;13.00;;;6.60;;
72198;SDS011;60103;51.014;16.992;2023-07-20T06:21:40;12.80;;;6.60;;
72198;SDS011;60103;51.014;16.992;2023-07-20T06:24:09;12.20;;;6.90;;
72198;SDS011;60103;51.014;16.992;2023-07-20T06:26:38;13.60;;;6.60;;
72198;SDS011;60103;51.014;16.992;2023-07-20T06:29:07;17.20;;;7.50;;
72198;SDS011;60103;51.014;16.992;2023-07-20T06:31:39;13.60;;;6.70;;
72198;SDS011;60103;51.014;16.992;2023-07-20T06:34:08;13.80;;;7.10;;
72198;SDS011;60103;51.014;16.992;2023-07-20T06:36:37;12.00;;;6.20;;
72198;SDS011;60103;51.014;16.992;2023-07-20T06:39:06;13.00;;;6.50;;
72198;SDS011;60103;51.014;16.992;2023-07-20T06:41:38;14.50;;;7.00;;
72198;SDS011;60103;51.014;16.992;2023-07-20T06:44:09;11.70;;;6.20;;
72198;SDS011;60103;51.014;16.992;2023-07-20T06:46:38;15.80;;;7.10;;
72198;SDS011;60103;51.014;16.992;2023-07-20T06:49:08;13.20;;;7.00;;
72198;SDS011;60103;51.014;16.992;2023-07-20T06:51:39;13.40;;;6.40;;
72198;SDS011;60103;51.014;16.992;2023-07-20T06:54:08;12.40;;;6.80;;
72198;SDS011;60103;51.014;16.992;2023-07-20T06:56:37;13.90;;;6.20;;
72198;SDS011;60103;51.014;16.992;2023-07-20T06:59:12;10.40;;;5.50;;
72198;SDS011;60103;51.014;16.992;2023-07-20T07:01:41;12.10;;;5.70;;
72198;SDS011;60103;51.014;16.992;2023-07-20T07:04:10;9.60;;;5.40;;
72198;SDS011;60103;51.014;16.992;2023-07-20T07:06:39;11.10;;;5.10;;
72198;SDS011;60103;51.014;16.992;2023-07-20T07:09:08;15.30;;;6.00;;
72198;SDS011;60103;51.014;16.992;2023-07-20T07:11:37;10.20;;;5.20;;
72198;SDS011;60103;51.014;16.992;2023-07-20T07:14:06;15.20;;;6.10;;
72198;SDS011;60103;51.014;16.992;2023-07-20T07:16:35;10.10;;;5.40;;
72198;SDS011;60103;51.014;16.992;2023-07-20T07:19:06;10.50;;;5.10;;
72198;SDS011;60103;51.014;16.992;2023-07-20T07:21:36;10.00;;;5.10;;
72198;SDS011;60103;51.014;16.992;2023-07-20T07:24:05;13.00;;;5.00;;
72198;SDS011;60103;51.014;16.992;2023-07-20T07:26:36;12.20;;;5.30;;
72198;SDS011;60103;51.014;16.992;2023-07-20T07:29:06;14.10;;;6.20;;
72198;SDS011;60103;51.014;16.992;2023-07-20T07:31:35;15.30;;;5.60;;
72198;SDS011;60103;51.014;16.992;2023-07-20T07:34:04;12.80;;;5.70;;
72198;SDS011;60103;51.014;16.992;2023-07-20T07:36:33;10.80;;;5.80;;
72198;SDS011;60103;51.014;16.992;2023-07-20T07:39:03;10.20;;;5.30;;
72198;SDS011;60103;51.014;16.992;2023-07-20T07:41:35;10.50;;;4.90;;
72198;SDS011;60103;51.014;16.992;2023-07-20T07:44:04;10.40;;;4.50;;
72198;SDS011;60103;51.014;16.992;2023-07-20T07:46:33;10.10;;;4.90;;
72198;SDS011;60103;51.014;16.992;2023-07-20T07:49:02;11.10;;;5.10;;
72198;SDS011;60103;51.014;16.992;2023-07-20T07:51:31;10.40;;;4.30;;
72198;SDS011;60103;51.014;16.992;2023-07-20T07:54:00;8.90;;;4.80;;
72198;SDS011;60103;51.014;16.992;2023-07-20T07:56:29;10.20;;;5.50;;
72198;SDS011;60103;51.014;16.992;2023-07-20T07:58:58;10.10;;;4.60;;
72198;SDS011;60103;51.014;16.992;2023-07-20T08:01:27;11.50;;;4.30;;
72198;SDS011;60103;51.014;16.992;2023-07-20T08:03:56;12.30;;;4.70;;
72198;SDS011;60103;51.014;16.992;2023-07-20T08:06:25;12.30;;;4.40;;
72198;SDS011;60103;51.014;16.992;2023-07-20T08:08:54;9.00;;;4.20;;
72198;SDS011;60103;51.014;16.992;2023-07-20T08:11:23;9.00;;;4.40;;
72198;SDS011;60103;51.014;16.992;2023-07-20T08:13:52;9.20;;;4.40;;
72198;SDS011;60103;51.014;16.992;2023-07-20T08:16:21;8.60;;;4.10;;
72198;SDS011;60103;51.014;16.992;2023-07-20T08:18:51;8.70;;;4.20;;
72198;SDS011;60103;51.014;16.992;2023-07-20T08:21:20;8.60;;;4.10;;
72198;SDS011;60103;51.014;16.992;2023-07-20T08:23:48;12.80;;;4.50;;
72198;SDS011;60103;51.014;16.992;2023-07-20T08:26:17;9.00;;;4.30;;
72198;SDS011;60103;51.014;16.992;2023-07-20T08:28:46;8.40;;;3.60;;
72198;SDS011;60103;51.014;16.992;2023-07-20T08:31:16;8.80;;;3.70;;
72198;SDS011;60103;51.014;16.992;2023-07-20T08:33:45;11.80;;;4.70;;
72198;SDS011;60103;51.014;16.992;2023-07-20T08:36:14;10.40;;;4.40;;
72198;SDS011;60103;51.014;16.992;2023-07-20T08:38:43;8.50;;;3.90;;
72198;SDS011;60103;51.014;16.992;2023-07-20T08:41:12;8.80;;;3.80;;
72198;SDS011;60103;51.014;16.992;2023-07-20T08:43:41;8.20;;;3.80;;
72198;SDS011;60103;51.014;16.992;2023-07-20T08:46:12;8.80;;;4.50;;
72198;SDS011;60103;51.014;16.992;2023-07-20T08:48:41;7.90;;;3.50;;
72198;SDS011;60103;51.014;16.992;2023-07-20T08:51:10;8.50;;;3.30;;
72198;SDS011;60103;51.014;16.992;2023-07-20T08:53:40;8.60;;;4.00;;
72198;SDS011;60103;51.014;16.992;2023-07-20T08:56:09;8.80;;;3.90;;
72198;SDS011;60103;51.014;16.992;2023-07-20T08:58:39;7.70;;;3.70;;
72198;SDS011;60103;51.014;16.992;2023-07-20T09:01:11;9.60;;;3.30;;
72198;SDS011;60103;51.014;16.992;2023-07-20T09:03:41;7.30;;;3.50;;
72198;SDS011;60103;51.014;16.992;2023-07-20T09:06:11;9.40;;;3.80;;
72198;SDS011;60103;51.014;16.992;2023-07-20T09:08:40;6.90;;;2.80;;
72198;SDS011;60103;51.014;16.992;2023-07-20T09:11:10;8.20;;;2.70;;
72198;SDS011;60103;51.014;16.992;2023-07-20T09:13:40;8.80;;;3.00;;
72198;SDS011;60103;51.014;16.992;2023-07-20T09:16:10;6.50;;;2.60;;
72198;SDS011;60103;51.014;16.992;2023-07-20T09:18:43;8.10;;;3.40;;
72198;SDS011;60103;51.014;16.992;2023-07-20T09:21:11;6.30;;;2.60;;
72198;SDS011;60103;51.014;16.992;2023-07-20T09:23:45;8.10;;;3.40;;
72198;SDS011;60103;51.014;16.992;2023-07-20T09:26:14;6.40;;;2.60;;
72198;SDS011;60103;51.014;16.992;2023-07-20T09:28:48;5.90;;;2.30;;
72198;SDS011;60103;51.014;16.992;2023-07-20T09:31:19;5.80;;;1.70;;
72198;SDS011;60103;51.014;16.992;2023-07-20T09:33:49;6.00;;;2.10;;
72198;SDS011;60103;51.014;16.992;2023-07-20T09:36:23;7.40;;;2.30;;
72198;SDS011;60103;51.014;16.992;2023-07-20T09:39:12;6.00;;;2.20;;
72198;SDS011;60103;51.014;16.992;2023-07-20T09:41:41;5.20;;;1.60;;
72198;SDS011;60103;51.014;16.992;2023-07-20T09:44:15;5.40;;;2.00;;
72198;SDS011;60103;51.014;16.992;2023-07-20T09:46:48;4.80;;;1.70;;
72198;SDS011;60103;51.014;16.992;2023-07-20T09:49:19;5.30;;;1.70;;
72198;SDS011;60103;51.014;16.992;2023-07-20T09:51:51;5.70;;;1.80;;
72198;SDS011;60103;51.014;16.992;2023-07-20T09:54:21;6.20;;;1.90;;
72198;SDS011;60103;51.014;16.992;2023-07-20T09:56:50;5.70;;;2.20;;
72198;SDS011;60103;51.014;16.992;2023-07-20T09:59:21;8.40;;;2.00;;
72198;SDS011;60103;51.014;16.992;2023-07-20T10:01:50;5.60;;;2.00;;
72198;SDS011;60103;51.014;16.992;2023-07-20T10:04:21;6.10;;;1.60;;
72198;SDS011;60103;51.014;16.992;2023-07-20T10:06:50;5.30;;;1.90;;
72198;SDS011;60103;51.014;16.992;2023-07-20T10:09:20;6.50;;;1.80;;
72198;SDS011;60103;51.014;16.992;2023-07-20T10:11:51;4.50;;;1.50;;
72198;SDS011;60103;51.014;16.992;2023-07-20T10:14:43;4.70;;;1.30;;
72198;SDS011;60103;51.014;16.992;2023-07-20T10:17:14;4.50;;;1.60;;
72198;SDS011;60103;51.014;16.992;2023-07-20T10:19:49;4.60;;;1.60;;
72198;SDS011;60103;51.014;16.992;2023-07-20T10:22:25;4.70;;;1.40;;
72198;SDS011;60103;51.014;16.992;2023-07-20T10:24:55;6.10;;;1.60;;
72198;SDS011;60103;51.014;16.992;2023-07-20T10:27:27;5.50;;;1.60;;
72198;SDS011;60103;51.014;16.992;2023-07-20T10:29:56;4.60;;;1.50;;
72198;SDS011;60103;51.014;16.992;2023-07-20T10:32:27;5.40;;;1.70;;
72198;SDS011;60103;51.014;16.992;2023-07-20T10:34:57;4.90;;;1.60;;
72198;SDS011;60103;51.014;16.992;2023-07-20T10:40:32;5.60;;;1.80;;
72198;SDS011;60103;51.014;16.992;2023-07-20T10:43:06;5.30;;;1.70;;
72198;SDS011;60103;51.014;16.992;2023-07-20T10:45:40;4.70;;;1.50;;
72198;SDS011;60103;51.014;16.992;2023-07-20T10:51:11;6.10;;;1.70;;
72198;SDS011;60103;51.014;16.992;2023-07-20T10:53:42;5.90;;;2.00;;
72198;SDS011;60103;51.014;16.992;2023-07-20T10:56:11;6.70;;;2.50;;
72198;SDS011;60103;51.014;16.992;2023-07-20T10:58:44;5.30;;;1.80;;
72198;SDS011;60103;51.014;16.992;2023-07-20T11:01:15;5.50;;;2.10;;
72198;SDS011;60103;51.014;16.992;2023-07-20T11:03:48;6.50;;;2.20;;
72198;SDS011;60103;51.014;16.992;2023-07-20T11:09:02;6.10;;;2.10;;
72198;SDS011;60103;51.014;16.992;2023-07-20T11:11:35;6.30;;;2.20;;
72198;SDS011;60103;51.014;16.992;2023-07-20T11:14:05;6.20;;;2.40;;
72198;SDS011;60103;51.014;16.992;2023-07-20T11:19:25;6.00;;;2.20;;
72198;SDS011;60103;51.014;16.992;2023-07-20T11:21:57;6.50;;;2.10;;
72198;SDS011;60103;51.014;16.992;2023-07-20T11:24:32;6.80;;;2.40;;
72198;SDS011;60103;51.014;16.992;2023-07-20T11:27:01;6.60;;;3.00;;
72198;SDS011;60103;51.014;16.992;2023-07-20T11:29:30;7.00;;;2.60;;
72198;SDS011;60103;51.014;16.992;2023-07-20T11:32:01;7.20;;;2.60;;
72198;SDS011;60103;51.014;16.992;2023-07-20T11:34:33;5.60;;;2.50;;
72198;SDS011;60103;51.014;16.992;2023-07-20T11:37:03;8.00;;;2.60;;
72198;SDS011;60103;51.014;16.992;2023-07-20T11:39:36;6.00;;;2.20;;
72198;SDS011;60103;51.014;16.992;2023-07-20T11:42:05;6.10;;;2.30;;
72198;SDS011;60103;51.014;16.992;2023-07-20T11:44:34;7.00;;;2.50;;
72198;SDS011;60103;51.014;16.992;2023-07-20T11:47:07;6.20;;;2.50;;
72198;SDS011;60103;51.014;16.992;2023-07-20T11:49:38;8.00;;;2.20;;
72198;SDS011;60103;51.014;16.992;2023-07-20T11:52:11;6.30;;;2.40;;
72198;SDS011;60103;51.014;16.992;2023-07-20T11:54:44;6.60;;;2.50;;
72198;SDS011;60103;51.014;16.992;2023-07-20T11:57:16;7.20;;;2.90;;
72198;SDS011;60103;51.014;16.992;2023-07-20T12:00:00;6.70;;;2.80;;
72198;SDS011;60103;51.014;16.992;2023-07-20T12:02:33;5.90;;;2.40;;
72198;SDS011;60103;51.014;16.992;2023-07-20T12:05:02;6.40;;;2.50;;
72198;SDS011;60103;51.014;16.992;2023-07-20T12:07:36;7.40;;;2.60;;
72198;SDS011;60103;51.014;16.992;2023-07-20T12:12:38;6.70;;;2.80;;
72198;SDS011;60103;51.014;16.992;2023-07-20T12:17:52;6.50;;;2.10;;
72198;SDS011;60103;51.014;16.992;2023-07-20T12:23:12;6.90;;;1.90;;
72198;SDS011;60103;51.014;16.992;2023-07-20T12:25:42;5.70;;;2.00;;
72198;SDS011;60103;51.014;16.992;2023-07-20T12:28:13;5.00;;;1.50;;
72198;SDS011;60103;51.014;16.992;2023-07-20T12:30:43;5.90;;;2.00;;
72198;SDS011;60103;51.014;16.992;2023-07-20T12:33:13;5.40;;;2.20;;
72198;SDS011;60103;51.014;16.992;2023-07-20T12:35:45;4.80;;;1.90;;
72198;SDS011;60103;51.014;16.992;2023-07-20T12:38:14;6.80;;;1.80;;
72198;SDS011;60103;51.014;16.992;2023-07-20T12:40:44;4.80;;;1.70;;
72198;SDS011;60103;51.014;16.992;2023-07-20T12:43:13;5.50;;;1.60;;
72198;SDS011;60103;51.014;16.992;2023-07-20T12:45:42;5.40;;;1.70;;
72198;SDS011;60103;51.014;16.992;2023-07-20T12:48:11;5.90;;;1.90;;
72198;SDS011;60103;51.014;16.992;2023-07-20T12:50:40;4.90;;;1.70;;
72198;SDS011;60103;51.014;16.992;2023-07-20T12:53:09;5.70;;;1.60;;
72198;SDS011;60103;51.014;16.992;2023-07-20T12:55:38;3.60;;;1.20;;
72198;SDS011;60103;51.014;16.992;2023-07-20T12:58:08;3.50;;;1.10;;
72198;SDS011;60103;51.014;16.992;2023-07-20T13:00:37;4.30;;;1.40;;
72198;SDS011;60103;51.014;16.992;2023-07-20T13:03:06;4.20;;;1.30;;
72198;SDS011;60103;51.014;16.992;2023-07-20T13:05:37;7.60;;;2.00;;
72198;SDS011;60103;51.014;16.992;2023-07-20T13:08:08;4.30;;;1.50;;
72198;SDS011;60103;51.014;16.992;2023-07-20T13:10:40;6.00;;;2.10;;
72198;SDS011;60103;51.014;16.992;2023-07-20T13:13:09;5.50;;;1.80;;
72198;SDS011;60103;51.014;16.992;2023-07-20T13:15:42;6.30;;;1.90;;
72198;SDS011;60103;51.014;16.992;2023-07-20T13:18:12;5.60;;;2.00;;
72198;SDS011;60103;51.014;16.992;2023-07-20T13:20:44;5.20;;;2.00;;
72198;SDS011;60103;51.014;16.992;2023-07-20T13:23:13;5.50;;;2.00;;
72198;SDS011;60103;51.014;16.992;2023-07-20T13:25:41;6.20;;;2.40;;
72198;SDS011;60103;51.014;16.992;2023-07-20T13:28:10;6.60;;;2.20;;
72198;SDS011;60103;51.014;16.992;2023-07-20T13:30:39;6.00;;;1.90;;
72198;SDS011;60103;51.014;16.992;2023-07-20T13:33:08;5.30;;;2.00;;
72198;SDS011;60103;51.014;16.992;2023-07-20T13:35:40;4.50;;;1.50;;
72198;SDS011;60103;51.014;16.992;2023-07-20T13:38:12;4.60;;;1.50;;
72198;SDS011;60103;51.014;16.992;2023-07-20T13:40:42;4.30;;;1.40;;
72198;SDS011;60103;51.014;16.992;2023-07-20T13:43:10;5.30;;;1.60;;
72198;SDS011;60103;51.014;16.992;2023-07-20T13:45:40;4.50;;;1.60;;
72198;SDS011;60103;51.014;16.992;2023-07-20T13:48:09;5.50;;;1.70;;
72198;SDS011;60103;51.014;16.992;2023-07-20T13:50:37;4.20;;;1.40;;
72198;SDS011;60103;51.014;16.992;2023-07-20T13:53:09;3.90;;;1.20;;
72198;SDS011;60103;51.014;16.992;2023-07-20T13:55:41;3.30;;;1.10;;
72198;SDS011;60103;51.014;16.992;2023-07-20T13:58:13;3.10;;;0.90;;
72198;SDS011;60103;51.014;16.992;2023-07-20T14:00:42;6.40;;;1.50;;
72198;SDS011;60103;51.014;16.992;2023-07-20T14:03:11;6.10;;;1.30;;
72198;SDS011;60103;51.014;16.992;2023-07-20T14:05:42;4.90;;;1.50;;
72198;SDS011;60103;51.014;16.992;2023-07-20T14:08:15;4.40;;;1.30;;
72198;SDS011;60103;51.014;16.992;2023-07-20T14:10:43;4.20;;;1.20;;
72198;SDS011;60103;51.014;16.992;2023-07-20T14:13:16;5.30;;;1.60;;
72198;SDS011;60103;51.014;16.992;2023-07-20T14:15:45;4.50;;;1.60;;
72198;SDS011;60103;51.014;16.992;2023-07-20T14:18:13;4.60;;;1.50;;
72198;SDS011;60103;51.014;16.992;2023-07-20T14:20:46;4.40;;;1.40;;
72198;SDS011;60103;51.014;16.992;2023-07-20T14:23:15;4.00;;;1.40;;
72198;SDS011;60103;51.014;16.992;2023-07-20T14:25:43;3.60;;;1.10;;
72198;SDS011;60103;51.014;16.992;2023-07-20T14:28:12;4.90;;;1.30;;
72198;SDS011;60103;51.014;16.992;2023-07-20T14:30:41;3.70;;;1.20;;
72198;SDS011;60103;51.014;16.992;2023-07-20T14:33:10;4.30;;;1.20;;
72198;SDS011;60103;51.014;16.992;2023-07-20T14:35:38;3.90;;;1.20;;
72198;SDS011;60103;51.014;16.992;2023-07-20T14:38:07;4.30;;;1.50;;
72198;SDS011;60103;51.014;16.992;2023-07-20T14:40:36;4.50;;;1.40;;
72198;SDS011;60103;51.014;16.992;2023-07-20T14:43:04;4.60;;;1.50;;
72198;SDS011;60103;51.014;16.992;2023-07-20T14:45:33;4.80;;;1.50;;
72198;SDS011;60103;51.014;16.992;2023-07-20T14:48:06;5.40;;;1.20;;
72198;SDS011;60103;51.014;16.992;2023-07-20T14:50:35;4.10;;;1.20;;
72198;SDS011;60103;51.014;16.992;2023-07-20T14:53:04;5.10;;;1.30;;
72198;SDS011;60103;51.014;16.992;2023-07-20T14:55:34;4.70;;;1.60;;
72198;SDS011;60103;51.014;16.992;2023-07-20T14:58:02;5.30;;;1.40;;
72198;SDS011;60103;51.014;16.992;2023-07-20T15:00:31;6.80;;;1.30;;
72198;SDS011;60103;51.014;16.992;2023-07-20T15:03:00;3.30;;;1.20;;
72198;SDS011;60103;51.014;16.992;2023-07-20T15:05:29;5.00;;;1.30;;
72198;SDS011;60103;51.014;16.992;2023-07-20T15:07:58;5.20;;;1.50;;
72198;SDS011;60103;51.014;16.992;2023-07-20T15:10:27;5.30;;;1.60;;
72198;SDS011;60103;51.014;16.992;2023-07-20T15:12:57;4.90;;;1.40;;
72198;SDS011;60103;51.014;16.992;2023-07-20T15:15:25;4.90;;;1.30;;